• Join FlightAware (Why Join?)
  • Login
  • US Flag 
09:10AM EDT


 

Airport Tracker/Info


-or-


 

Live Flight TrackerFlight Track Log ✈ GJS3649 ✈ 20-Apr-2013 ✈ KPHL - KORD

Flight Track Log - Related Links

Times and Time Zones

All times are in EDT time to prevent confusion due to time zone crossing. See the GJS3649 flight status page for this flight to view local times or setup timezone preferences in your user account.

Time Position Orientation Groundspeed Altitude Reporting Facility
EDT Latitude Longitude Course Direction KTS MPH feet Rate Location/Type
12:36PM 39.8667 -75.2667 249° West 147 169 900  Level Philadelphia TRACON
12:37PM 39.8561 -75.3031 249° West 167 192 1,800 1,620 Climbing FAA TRACON SMA TRACON (SMA)
12:37PM 39.8536 -75.3231 261° West 183 211 2,400 1,920 Climbing FAA TRACON SMA TRACON (SMA)
12:37PM 39.8500 -75.3461 258° West 207 238 3,100 2,820 Climbing FAA TRACON SMA TRACON (SMA)
12:38PM 39.8508 -75.3772 272° West 227 261 4,300 3,000 Climbing FAA TRACON SMA TRACON (SMA)
12:38PM 39.8614 -75.3989 302° West 233 268 5,100 2,700 Climbing FAA TRACON SMA TRACON (SMA)
12:38PM 39.8764 -75.4169 317° Northwest 236 272 6,100 3,420 Climbing FAA TRACON SMA TRACON (SMA)
12:39PM 39.8956 -75.4386 319° Northwest 236 272 7,400 3,000 Climbing FAA TRACON SMA TRACON (SMA)
12:39PM 39.9114 -75.4556 321° Northwest 237 273 8,100 2,400 Climbing FAA TRACON SMA TRACON (SMA)
12:39PM 39.9278 -75.4742 319° Northwest 242 278 9,000 2,700 Climbing FAA TRACON SMA TRACON (SMA)
12:40PM 39.9517 -75.4911 331° Northwest 272 313 9,900 2,220 Climbing FAA TRACON SMA TRACON (SMA)
12:40PM 39.9761 -75.4978 348° North 294 338 10,500 1,800 Climbing FAA TRACON SMA TRACON (SMA)
12:40PM 40.0022 -75.5044 349° North 308 354 11,100 2,100 Climbing FAA TRACON SMA TRACON (SMA)
12:41PM 40.0347 -75.5128 349° North 310 357 11,900 1,920 Climbing FAA TRACON SMA TRACON (SMA)
12:41PM 40.0614 -75.5197 349° North 317 365 12,400 1,500 Climbing FAA TRACON SMA TRACON (SMA)
12:41PM 40.0939 -75.5286 348° North 338 389 12,900 900 Climbing FAA TRACON SMA TRACON (SMA)
12:42PM 40.1292 -75.5375 349° North 368 423 13,000 300 Climbing FAA TRACON SMA TRACON (SMA)
12:42PM 40.1608 -75.5456 349° North 378 435 13,100 1,020 Climbing FAA TRACON SMA TRACON (SMA)
12:42PM 40.1936 -75.5539 349° North 383 441 13,700 1,800 Climbing FAA TRACON SMA TRACON (SMA)
12:43PM 40.2233 -75.5706 337° Northwest 375 432 14,300 2,100 Climbing FAA TRACON SMA TRACON (SMA)
12:43PM 40.2500 -75.6028 317° Northwest 344 396 15,100 2,100 Climbing FAA TRACON SMA TRACON (SMA)
12:43PM 40.2697 -75.6328 311° West 348 400 15,700 1,620 Climbing FAA TRACON SMA TRACON (SMA)
12:44PM 40.2892 -75.6628 310° West 349 402 16,200 1,500 Climbing FAA TRACON SMA TRACON (SMA)
12:44PM 40.3147 -75.7003 312° West 355 409 16,700 1,200 Climbing FAA TRACON SMA TRACON (SMA)
12:44PM 40.3350 -75.7317 310° West 363 418 17,000 420 Climbing FAA TRACON SMA TRACON (SMA)
12:45PM 40.3619 -75.7669 315° West 371 427 17,000 300 Level FAA TRACON SMA TRACON (SMA)
12:45PM 40.3703 -75.7836 303° West 373 429 17,200 180 Climbing FAA TRACON SMA TRACON (SMA)
12:46PM 40.3703 -75.7836 201° Southwest 373 429 17,200 1,500 Level FAA TRACON SMA TRACON (SMA)
12:47PM 40.4533 -75.9722 300° West 369 425 19,700 2,040 Climbing New York Center
12:47PM 40.4747 -76.0994 283° West 359 413 21,200 1,380 Climbing New York Center
12:48PM 40.4936 -76.2292 281° West 359 413 22,500 1,140 Climbing New York Center
12:49PM 40.5147 -76.3619 282° West 364 419 23,500 960 Climbing New York Center
12:50PM 40.5333 -76.4947 280° West 364 419 24,500 960 Climbing New York Center
12:52PM 40.5536 -76.6303 281° West 375 432 25,500 960 Climbing New York Center
12:53PM 40.5656 -76.7678 277° West 380 437 26,500 1,020 Climbing New York Center
12:53PM 40.5794 -76.9056 278° West 380 437 27,600 1,020 Climbing New York Center
12:54PM 40.5933 -77.0381 278° West 375 432 28,600 960 Climbing New York Center
12:55PM 40.6047 -77.1733 276° West 375 432 29,600 960 Climbing New York Center
12:56PM 40.6158 -77.3136 276° West 375 432 30,600 960 Climbing New York Center
12:58PM 40.6328 -77.5269 276° West 371 427 32,200 960 Climbing Cleveland Center
12:59PM 40.6447 -77.6631 277° West 371 427 33,200 840 Climbing Cleveland Center
01:00PM 40.6544 -77.7997 275° West 371 427 33,900 360 Climbing Cleveland Center
01:01PM 40.6744 -77.9411 281° West 383 441 34,000  Climbing Cleveland Center
01:02PM 40.6944 -78.0856 280° West 397 457 34,000  Level Cleveland Center
01:03PM 40.7164 -78.2353 281° West 409 471 34,000 -60 Level Cleveland Center
01:04PM 40.7358 -78.3800 280° West 409 471 33,900  Descending Cleveland Center
01:05PM 40.7553 -78.5244 280° West 409 471 34,000  Climbing Cleveland Center
01:06PM 40.7767 -78.6803 280° West 409 471 34,000  Level Cleveland Center
01:07PM 40.7958 -78.8222 280° West 409 471 34,000  Level Cleveland Center
01:08PM 40.8167 -78.9644 281° West 409 471 34,000  Level Cleveland Center
01:09PM 40.8331 -79.1094 279° West 409 471 34,000  Level Cleveland Center
01:10PM 40.8536 -79.2517 281° West 409 471 34,000  Level Cleveland Center
01:11PM 40.8719 -79.3997 279° West 409 471 34,000  Level Cleveland Center
01:12PM 40.8900 -79.5478 279° West 409 471 34,000  Level Cleveland Center
01:13PM 40.9100 -79.6983 280° West 409 471 34,000  Level Cleveland Center
01:14PM 40.9278 -79.8439 279° West 409 471 34,000  Level Cleveland Center
01:15PM 40.9453 -79.9947 279° West 409 471 34,000  Level Cleveland Center
01:16PM 40.9628 -80.1431 279° West 409 471 34,000  Level Cleveland Center
01:17PM 40.9797 -80.2861 279° West 409 471 34,000  Level Cleveland Center
01:18PM 40.9969 -80.4292 279° West 409 471 34,000  Level Cleveland Center
01:19PM 41.0136 -80.5694 279° West 404 465 34,000  Level Cleveland Center
01:20PM 41.0303 -80.7097 279° West 399 459 34,000  Level Cleveland Center
01:21PM 41.0467 -80.8503 279° West 389 448 34,000  Level Cleveland Center
01:22PM 41.0567 -80.9933 275° West 389 448 34,000  Level Cleveland Center
01:23PM 41.0642 -81.1450 274° West 406 467 34,000  Level Cleveland Center
01:24PM 41.0739 -81.2992 275° West 412 474 34,000  Level Cleveland Center
01:25PM 41.0833 -81.4508 275° West 417 480 34,000  Level Cleveland Center
01:26PM 41.0925 -81.5997 275° West 417 480 34,000  Level Cleveland Center
01:27PM 41.1014 -81.7569 274° West 422 486 34,000  Level Cleveland Center
01:28PM 41.1081 -81.8947 274° West 422 486 34,000  Level Cleveland Center
01:29PM 41.1189 -82.0467 275° West 422 486 34,000  Level Cleveland Center
01:30PM 41.1272 -82.2011 274° West 422 486 34,000  Level Cleveland Center
01:31PM 41.1331 -82.3586 273° West 425 489 34,000  Level Cleveland Center
01:32PM 41.1431 -82.5269 275° West 425 489 34,000  Level Cleveland Center
01:33PM 41.1506 -82.6817 274° West 425 489 34,000  Level Cleveland Center
01:34PM 41.1600 -82.8392 275° West 425 489 34,000  Level Cleveland Center
01:35PM 41.1675 -82.9939 274° West 425 489 34,000  Level Cleveland Center
01:36PM 41.1744 -83.1458 274° West 420 483 34,000  Level Cleveland Center
01:37PM 41.1817 -83.2842 274° West 420 483 34,000  Level Cleveland Center
01:38PM 41.1864 -83.4361 272° West 420 483 34,000  Level Cleveland Center
01:39PM 41.1931 -83.5856 273° West 420 483 34,000  Level Cleveland Center
01:40PM 41.2014 -83.7350 274° West 420 483 34,000  Level Cleveland Center
01:41PM 41.2072 -83.9008 273° West 413 475 34,000  Level Cleveland Center
01:42PM 41.2158 -84.0311 275° West 408 470 34,000  Level Cleveland Center
01:44PM 41.2258 -84.2581 273° West 401 461 34,000  Level Chicago Center
01:45PM 41.2278 -84.4064 271° West 402 463 34,000  Level Chicago Center
01:46PM 41.2336 -84.5519 273° West 397 457 34,000  Level Chicago Center
01:47PM 41.2392 -84.6978 273° West 395 455 34,000  Level Chicago Center
01:48PM 41.2458 -84.8714 273° West 393 452 34,000  Level Chicago Center
01:49PM 41.2519 -85.0172 273° West 393 452 34,000 -300 Level Chicago Center
01:50PM 41.2569 -85.1628 273° West 393 452 33,500 -1,080 Descending Chicago Center
01:51PM 41.2619 -85.3075 273° West 391 450 31,800 -1,680 Descending Chicago Center
01:52PM 41.2656 -85.4467 272° West 380 437 30,100 -1,680 Descending Chicago Center
01:53PM 41.2697 -85.5819 272° West 366 421 28,400 -1,740 Descending Chicago Center
01:54PM 41.2736 -85.7147 272° West 359 413 26,600 -1,680 Descending Chicago Center
01:55PM 41.2789 -85.8469 273° West 360 414 25,000 -840 Descending Chicago Center
01:56PM 41.3264 -85.9667 298° West 367 422 25,000 -120 Level Chicago Center
01:57PM 41.3750 -86.0864 298° West 365 420 24,800 -1,620 Descending Chicago Center
01:58PM 41.4314 -86.2258 298° West 357 411 21,700 -2,760 Descending Chicago Center
01:59PM 41.4747 -86.3353 298° West 338 389 19,200 -2,340 Descending Chicago Center
02:00PM 41.5164 -86.4386 298° West 320 368 17,000 -2,100 Descending Chicago Center
02:01PM 41.5556 -86.5414 297° West 313 360 14,900 -2,040 Descending Chicago Center
02:02PM 41.5967 -86.6464 298° West 317 365 12,900 -1,440 Descending Chicago Center
02:03PM 41.6383 -86.7489 299° West 315 362 12,000 -480 Descending Chicago Center
02:04PM 41.7133 -86.8022 332° Northwest 327 376 12,000 -120 Level Chicago Center
02:05PM 41.8178 -86.8194 353° North 317 365 11,800 -480 Descending Chicago Center
02:06PM 41.8886 -86.8733 330° Northwest 314 361 11,100 -420 Descending Chicago Center
02:07PM 41.9133 -86.9869 286° West 313 360 11,000 -300 Descending Chicago Center
02:08PM 41.9331 -87.0914 284° West 298 343 10,600 -720 Descending Chicago Center
02:09PM 41.9514 -87.1819 285° West 267 307 9,600 -1,020 Descending Chicago Center
02:10PM 41.9689 -87.2642 286° West 240 276 8,600 -1,080 Descending Chicago Center
02:11PM 41.9831 -87.3542 282° West 212 244 7,400 -840 Descending Chicago Center
02:12PM 41.9828 -87.4289 270° West 204 235 7,000 -240 Descending Chicago Center
02:13PM 41.9833 -87.4833 271° West 207 238 7,000 -660 Level Chicago TRACON
02:14PM 41.9833 -87.5667 270° West 205 236 5,800 -1,260 Descending Chicago TRACON
02:16PM 41.9833 -87.7167 270° West 188 216 3,300 -1,200 Descending Chicago TRACON
02:17PM 41.9833 -87.7833 270° West 166 191 2,400 -900 Descending Chicago TRACON
02:18PM 41.9833 -87.8333 270° West 128 147 1,600 -780 Descending Chicago TRACON
02:19PM 41.9833 -87.8667 270° West 129 148 1,000 -720 Descending Chicago TRACON
02:21PM 41.9667 -87.9000 270° West  Level FlightAware Approximate